sensor_id;sensor_type;location;lat;lon;timestamp;temperature;humidity
79694;DHT22;69165;52.714;13.200;2023-04-24T05:02:15;11.50;99.90
79694;DHT22;69165;52.714;13.200;2023-04-24T05:04:17;11.50;99.90
79694;DHT22;69165;52.714;13.200;2023-04-24T05:06:18;11.60;99.90
79694;DHT22;69165;52.714;13.200;2023-04-24T05:08:20;11.60;99.90
79694;DHT22;69165;52.714;13.200;2023-04-24T05:10:22;11.70;99.90
79694;DHT22;69165;52.714;13.200;2023-04-24T05:12:23;11.80;99.90
79694;DHT22;69165;52.714;13.200;2023-04-24T05:14:25;11.80;99.90
79694;DHT22;69165;52.714;13.200;2023-04-24T05:16:27;11.90;99.90
79694;DHT22;69165;52.714;13.200;2023-04-24T05:18:28;11.90;99.90
79694;DHT22;69165;52.714;13.200;2023-04-24T05:20:31;12.00;99.90
79694;DHT22;69165;52.714;13.200;2023-04-24T05:22:32;12.00;99.90
79694;DHT22;69165;52.714;13.200;2023-04-24T05:24:34;12.10;99.90
79694;DHT22;69165;52.714;13.200;2023-04-24T05:26:35;12.10;99.90
79694;DHT22;69165;52.714;13.200;2023-04-24T05:28:37;12.10;99.90
79694;DHT22;69165;52.714;13.200;2023-04-24T05:30:39;12.10;99.90
79694;DHT22;69165;52.714;13.200;2023-04-24T05:32:40;12.20;99.90
79694;DHT22;69165;52.714;13.200;2023-04-24T05:34:42;12.10;99.90
79694;DHT22;69165;52.714;13.200;2023-04-24T05:36:44;12.20;99.90
79694;DHT22;69165;52.714;13.200;2023-04-24T05:38:46;12.20;99.90
79694;DHT22;69165;52.714;13.200;2023-04-24T05:40:47;12.10;99.90
79694;DHT22;69165;52.714;13.200;2023-04-24T05:42:49;12.20;99.90
79694;DHT22;69165;52.714;13.200;2023-04-24T05:44:50;12.20;99.90
79694;DHT22;69165;52.714;13.200;2023-04-24T05:46:52;12.20;99.90
79694;DHT22;69165;52.714;13.200;2023-04-24T05:48:54;12.20;99.90
79694;DHT22;69165;52.714;13.200;2023-04-24T05:50:56;12.30;99.90
79694;DHT22;69165;52.714;13.200;2023-04-24T05:52:58;12.30;99.90
79694;DHT22;69165;52.714;13.200;2023-04-24T05:54:59;12.30;99.90
79694;DHT22;69165;52.714;13.200;2023-04-24T05:57:01;12.30;99.90
79694;DHT22;69165;52.714;13.200;2023-04-24T05:59:03;12.30;99.90
79694;DHT22;69165;52.714;13.200;2023-04-24T06:01:04;12.40;99.90
79694;DHT22;69165;52.714;13.200;2023-04-24T06:03:06;12.40;99.90
79694;DHT22;69165;52.714;13.200;2023-04-24T06:05:08;12.40;99.90
79694;DHT22;69165;52.714;13.200;2023-04-24T06:07:10;12.50;99.90
79694;DHT22;69165;52.714;13.200;2023-04-24T06:09:11;12.50;99.90
79694;DHT22;69165;52.714;13.200;2023-04-24T06:11:12;12.60;99.90
79694;DHT22;69165;52.714;13.200;2023-04-24T06:13:14;12.60;99.90
79694;DHT22;69165;52.714;13.200;2023-04-24T06:15:17;12.70;99.90
79694;DHT22;69165;52.714;13.200;2023-04-24T06:17:19;12.70;99.90
79694;DHT22;69165;52.714;13.200;2023-04-24T06:19:20;12.80;99.90
79694;DHT22;69165;52.714;13.200;2023-04-24T06:21:22;12.90;99.90
79694;DHT22;69165;52.714;13.200;2023-04-24T06:23:24;12.90;99.90
79694;DHT22;69165;52.714;13.200;2023-04-24T06:25:26;13.00;99.90
79694;DHT22;69165;52.714;13.200;2023-04-24T06:27:29;13.10;99.90
79694;DHT22;69165;52.714;13.200;2023-04-24T06:29:32;13.20;99.90
79694;DHT22;69165;52.714;13.200;2023-04-24T06:31:33;13.20;99.90
79694;DHT22;69165;52.714;13.200;2023-04-24T06:33:35;13.30;99.90
79694;DHT22;69165;52.714;13.200;2023-04-24T06:35:36;13.40;99.90
79694;DHT22;69165;52.714;13.200;2023-04-24T06:37:39;13.50;99.90
79694;DHT22;69165;52.714;13.200;2023-04-24T06:39:40;13.60;99.90
79694;DHT22;69165;52.714;13.200;2023-04-24T06:41:42;13.70;99.90
79694;DHT22;69165;52.714;13.200;2023-04-24T06:43:43;13.80;99.90
79694;DHT22;69165;52.714;13.200;2023-04-24T06:45:45;13.80;99.90
79694;DHT22;69165;52.714;13.200;2023-04-24T06:47:47;13.80;99.90
79694;DHT22;69165;52.714;13.200;2023-04-24T06:49:48;13.80;99.90
79694;DHT22;69165;52.714;13.200;2023-04-24T06:51:50;13.80;99.90
79694;DHT22;69165;52.714;13.200;2023-04-24T06:53:52;13.80;99.90
79694;DHT22;69165;52.714;13.200;2023-04-24T06:55:53;13.90;99.90
79694;DHT22;69165;52.714;13.200;2023-04-24T06:57:55;14.00;99.90
79694;DHT22;69165;52.714;13.200;2023-04-24T06:59:56;14.10;99.90
79694;DHT22;69165;52.714;13.200;2023-04-24T07:01:59;14.30;99.90
79694;DHT22;69165;52.714;13.200;2023-04-24T07:04:00;14.30;99.90
79694;DHT22;69165;52.714;13.200;2023-04-24T07:06:02;14.30;99.90
79694;DHT22;69165;52.714;13.200;2023-04-24T07:08:04;14.20;99.90
79694;DHT22;69165;52.714;13.200;2023-04-24T07:10:06;14.20;99.90
79694;DHT22;69165;52.714;13.200;2023-04-24T07:12:08;14.30;99.90
79694;DHT22;69165;52.714;13.200;2023-04-24T07:14:09;14.40;99.90
79694;DHT22;69165;52.714;13.200;2023-04-24T07:16:11;14.60;99.90
79694;DHT22;69165;52.714;13.200;2023-04-24T07:18:12;14.70;99.90
79694;DHT22;69165;52.714;13.200;2023-04-24T07:20:14;14.80;99.90
79694;DHT22;69165;52.714;13.200;2023-04-24T07:22:17;15.20;99.90
79694;DHT22;69165;52.714;13.200;2023-04-24T07:24:18;15.10;99.90
79694;DHT22;69165;52.714;13.200;2023-04-24T07:26:20;15.40;99.90
79694;DHT22;69165;52.714;13.200;2023-04-24T07:28:21;15.50;99.90
79694;DHT22;69165;52.714;13.200;2023-04-24T07:30:23;15.90;99.90
79694;DHT22;69165;52.714;13.200;2023-04-24T07:32:25;15.90;99.90
79694;DHT22;69165;52.714;13.200;2023-04-24T07:34:27;16.10;99.90
79694;DHT22;69165;52.714;13.200;2023-04-24T07:36:28;16.20;99.90
79694;DHT22;69165;52.714;13.200;2023-04-24T07:38:30;16.40;99.90
79694;DHT22;69165;52.714;13.200;2023-04-24T07:40:32;16.50;99.90
79694;DHT22;69165;52.714;13.200;2023-04-24T07:42:33;16.50;99.90
79694;DHT22;69165;52.714;13.200;2023-04-24T07:44:35;16.40;99.90
79694;DHT22;69165;52.714;13.200;2023-04-24T07:46:37;16.30;99.90
79694;DHT22;69165;52.714;13.200;2023-04-24T07:48:40;16.30;99.90
79694;DHT22;69165;52.714;13.200;2023-04-24T07:50:43;16.50;99.90
79694;DHT22;69165;52.714;13.200;2023-04-24T07:52:44;16.50;99.90
79694;DHT22;69165;52.714;13.200;2023-04-24T07:54:46;16.70;99.90
79694;DHT22;69165;52.714;13.200;2023-04-24T07:56:48;16.70;99.90
79694;DHT22;69165;52.714;13.200;2023-04-24T07:58:49;16.90;99.90
79694;DHT22;69165;52.714;13.200;2023-04-24T08:00:51;17.00;99.90
79694;DHT22;69165;52.714;13.200;2023-04-24T08:02:53;16.90;99.90
79694;DHT22;69165;52.714;13.200;2023-04-24T08:04:55;16.90;99.90
79694;DHT22;69165;52.714;13.200;2023-04-24T08:06:57;16.90;99.90
79694;DHT22;69165;52.714;13.200;2023-04-24T08:08:59;16.90;99.90
79694;DHT22;69165;52.714;13.200;2023-04-24T08:11:01;16.80;99.90
79694;DHT22;69165;52.714;13.200;2023-04-24T08:13:02;16.80;99.90
79694;DHT22;69165;52.714;13.200;2023-04-24T08:15:05;16.80;99.90
79694;DHT22;69165;52.714;13.200;2023-04-24T08:17:06;16.80;99.90
79694;DHT22;69165;52.714;13.200;2023-04-24T08:19:08;16.90;99.90
79694;DHT22;69165;52.714;13.200;2023-04-24T08:21:10;16.90;99.90
79694;DHT22;69165;52.714;13.200;2023-04-24T08:23:12;16.80;99.90
79694;DHT22;69165;52.714;13.200;2023-04-24T08:25:14;16.60;99.90
79694;DHT22;69165;52.714;13.200;2023-04-24T08:27:16;16.60;99.90
79694;DHT22;69165;52.714;13.200;2023-04-24T08:29:18;16.50;99.90
79694;DHT22;69165;52.714;13.200;2023-04-24T08:31:19;16.50;99.90
79694;DHT22;69165;52.714;13.200;2023-04-24T08:33:22;16.50;99.90
79694;DHT22;69165;52.714;13.200;2023-04-24T08:35:23;16.50;99.90
79694;DHT22;69165;52.714;13.200;2023-04-24T08:37:25;16.50;99.90
79694;DHT22;69165;52.714;13.200;2023-04-24T08:39:27;16.50;99.90
79694;DHT22;69165;52.714;13.200;2023-04-24T08:41:29;16.50;99.90
79694;DHT22;69165;52.714;13.200;2023-04-24T08:43:30;16.70;99.90
79694;DHT22;69165;52.714;13.200;2023-04-24T08:45:32;17.00;99.90
79694;DHT22;69165;52.714;13.200;2023-04-24T08:47:34;17.10;99.90
79694;DHT22;69165;52.714;13.200;2023-04-24T08:49:35;17.20;99.90
79694;DHT22;69165;52.714;13.200;2023-04-24T08:51:37;17.20;99.90
79694;DHT22;69165;52.714;13.200;2023-04-24T08:53:39;17.00;99.90
79694;DHT22;69165;52.714;13.200;2023-04-24T08:55:42;17.00;99.90
79694;DHT22;69165;52.714;13.200;2023-04-24T08:57:44;17.00;99.90
79694;DHT22;69165;52.714;13.200;2023-04-24T08:59:45;16.80;99.90
79694;DHT22;69165;52.714;13.200;2023-04-24T09:01:47;16.80;99.90
79694;DHT22;69165;52.714;13.200;2023-04-24T09:03:50;16.80;99.90
79694;DHT22;69165;52.714;13.200;2023-04-24T09:05:52;16.80;99.90
79694;DHT22;69165;52.714;13.200;2023-04-24T09:07:54;16.80;99.90
79694;DHT22;69165;52.714;13.200;2023-04-24T09:09:55;16.90;99.90
79694;DHT22;69165;52.714;13.200;2023-04-24T09:11:57;17.00;99.90
79694;DHT22;69165;52.714;13.200;2023-04-24T09:13:59;17.10;99.90
79694;DHT22;69165;52.714;13.200;2023-04-24T09:16:01;17.10;99.90
79694;DHT22;69165;52.714;13.200;2023-04-24T09:18:02;17.10;99.90
79694;DHT22;69165;52.714;13.200;2023-04-24T09:20:06;17.30;99.90
79694;DHT22;69165;52.714;13.200;2023-04-24T09:22:07;17.30;99.90
79694;DHT22;69165;52.714;13.200;2023-04-24T09:24:14;17.30;99.90
79694;DHT22;69165;52.714;13.200;2023-04-24T09:26:11;17.00;99.90
79694;DHT22;69165;52.714;13.200;2023-04-24T09:28:13;17.00;99.90
79694;DHT22;69165;52.714;13.200;2023-04-24T09:30:16;17.00;99.90
79694;DHT22;69165;52.714;13.200;2023-04-24T09:32:18;17.00;99.90
79694;DHT22;69165;52.714;13.200;2023-04-24T09:34:22;17.00;99.90
79694;DHT22;69165;52.714;13.200;2023-04-24T09:36:27;17.00;99.90
79694;DHT22;69165;52.714;13.200;2023-04-24T09:38:32;17.00;99.90
79694;DHT22;69165;52.714;13.200;2023-04-24T09:40:34;17.00;99.90
79694;DHT22;69165;52.714;13.200;2023-04-24T09:42:35;17.10;99.90
79694;DHT22;69165;52.714;13.200;2023-04-24T09:44:36;17.00;99.90
79694;DHT22;69165;52.714;13.200;2023-04-24T09:46:38;17.00;99.90
79694;DHT22;69165;52.714;13.200;2023-04-24T09:48:39;17.10;99.90
79694;DHT22;69165;52.714;13.200;2023-04-24T09:50:45;17.20;99.90
79694;DHT22;69165;52.714;13.200;2023-04-24T09:52:44;17.10;99.90
79694;DHT22;69165;52.714;13.200;2023-04-24T09:54:47;17.10;99.90
79694;DHT22;69165;52.714;13.200;2023-04-24T09:56:48;17.10;99.90
79694;DHT22;69165;52.714;13.200;2023-04-24T09:58:48;17.00;99.90
79694;DHT22;69165;52.714;13.200;2023-04-24T10:00:50;16.90;99.90
79694;DHT22;69165;52.714;13.200;2023-04-24T10:03:02;16.70;99.90
79694;DHT22;69165;52.714;13.200;2023-04-24T10:05:04;16.80;99.90
79694;DHT22;69165;52.714;13.200;2023-04-24T10:07:06;16.70;99.90
79694;DHT22;69165;52.714;13.200;2023-04-24T10:09:07;16.70;99.90
79694;DHT22;69165;52.714;13.200;2023-04-24T10:11:09;16.70;99.90
79694;DHT22;69165;52.714;13.200;2023-04-24T10:13:11;16.70;99.90
79694;DHT22;69165;52.714;13.200;2023-04-24T10:15:12;16.70;99.90
79694;DHT22;69165;52.714;13.200;2023-04-24T10:17:15;16.70;99.90
79694;DHT22;69165;52.714;13.200;2023-04-24T10:19:16;16.70;99.90
79694;DHT22;69165;52.714;13.200;2023-04-24T10:21:20;16.70;99.90
79694;DHT22;69165;52.714;13.200;2023-04-24T10:23:24;16.90;99.90
79694;DHT22;69165;52.714;13.200;2023-04-24T10:25:27;17.00;99.90
79694;DHT22;69165;52.714;13.200;2023-04-24T10:27:28;17.10;99.90
79694;DHT22;69165;52.714;13.200;2023-04-24T10:29:30;17.10;99.90
79694;DHT22;69165;52.714;13.200;2023-04-24T10:31:31;17.10;99.90
79694;DHT22;69165;52.714;13.200;2023-04-24T10:33:33;17.10;99.90
79694;DHT22;69165;52.714;13.200;2023-04-24T10:35:40;16.90;99.90
79694;DHT22;69165;52.714;13.200;2023-04-24T10:37:46;16.80;99.90
79694;DHT22;69165;52.714;13.200;2023-04-24T10:39:48;16.80;99.90
79694;DHT22;69165;52.714;13.200;2023-04-24T10:41:49;16.80;99.90
79694;DHT22;69165;52.714;13.200;2023-04-24T10:46:05;16.60;99.90
79694;DHT22;69165;52.714;13.200;2023-04-24T10:48:07;16.50;99.90
79694;DHT22;69165;52.714;13.200;2023-04-24T10:50:10;16.50;99.90
79694;DHT22;69165;52.714;13.200;2023-04-24T10:52:12;16.50;99.90
79694;DHT22;69165;52.714;13.200;2023-04-24T10:54:27;16.60;99.90
79694;DHT22;69165;52.714;13.200;2023-04-24T10:56:29;16.70;99.90
79694;DHT22;69165;52.714;13.200;2023-04-24T10:58:37;16.70;99.90
79694;DHT22;69165;52.714;13.200;2023-04-24T11:00:38;16.80;99.90
79694;DHT22;69165;52.714;13.200;2023-04-24T11:02:40;17.00;99.90
79694;DHT22;69165;52.714;13.200;2023-04-24T11:04:43;17.00;99.90
79694;DHT22;69165;52.714;13.200;2023-04-24T11:06:44;17.00;99.90
79694;DHT22;69165;52.714;13.200;2023-04-24T11:08:46;17.10;99.90
79694;DHT22;69165;52.714;13.200;2023-04-24T11:10:54;17.10;99.90
79694;DHT22;69165;52.714;13.200;2023-04-24T11:12:50;17.30;99.90
79694;DHT22;69165;52.714;13.200;2023-04-24T11:15:00;17.50;99.90
79694;DHT22;69165;52.714;13.200;2023-04-24T11:17:00;17.50;99.90
79694;DHT22;69165;52.714;13.200;2023-04-24T11:19:05;17.60;99.90
79694;DHT22;69165;52.714;13.200;2023-04-24T11:21:11;17.60;99.90
79694;DHT22;69165;52.714;13.200;2023-04-24T11:23:12;17.50;99.90
79694;DHT22;69165;52.714;13.200;2023-04-24T11:25:14;17.30;99.90
79694;DHT22;69165;52.714;13.200;2023-04-24T11:27:16;17.10;99.90
79694;DHT22;69165;52.714;13.200;2023-04-24T11:29:18;16.80;99.90
79694;DHT22;69165;52.714;13.200;2023-04-24T11:33:32;16.00;99.90
79694;DHT22;69165;52.714;13.200;2023-04-24T11:35:35;15.70;99.90
79694;DHT22;69165;52.714;13.200;2023-04-24T11:37:38;15.50;99.90
79694;DHT22;69165;52.714;13.200;2023-04-24T11:39:39;15.50;99.90
79694;DHT22;69165;52.714;13.200;2023-04-24T11:41:40;15.60;99.90
79694;DHT22;69165;52.714;13.200;2023-04-24T11:43:42;15.70;99.90
79694;DHT22;69165;52.714;13.200;2023-04-24T11:45:47;15.80;99.90
79694;DHT22;69165;52.714;13.200;2023-04-24T11:47:45;15.90;99.90
79694;DHT22;69165;52.714;13.200;2023-04-24T11:49:49;16.10;99.90
79694;DHT22;69165;52.714;13.200;2023-04-24T11:51:49;16.30;99.90
79694;DHT22;69165;52.714;13.200;2023-04-24T11:53:52;16.30;99.90
79694;DHT22;69165;52.714;13.200;2023-04-24T11:55:53;16.30;99.90
79694;DHT22;69165;52.714;13.200;2023-04-24T11:57:56;16.30;99.90
79694;DHT22;69165;52.714;13.200;2023-04-24T11:59:57;16.30;99.90
79694;DHT22;69165;52.714;13.200;2023-04-24T12:01:58;16.20;99.90
79694;DHT22;69165;52.714;13.200;2023-04-24T12:04:00;16.10;99.90
79694;DHT22;69165;52.714;13.200;2023-04-24T12:06:06;16.20;99.90
79694;DHT22;69165;52.714;13.200;2023-04-24T12:08:07;16.20;99.90
79694;DHT22;69165;52.714;13.200;2023-04-24T12:10:09;16.30;99.90
79694;DHT22;69165;52.714;13.200;2023-04-24T12:12:11;16.40;99.90
79694;DHT22;69165;52.714;13.200;2023-04-24T12:14:13;16.50;99.90
79694;DHT22;69165;52.714;13.200;2023-04-24T12:16:14;16.50;99.90
79694;DHT22;69165;52.714;13.200;2023-04-24T12:18:16;16.50;99.90
79694;DHT22;69165;52.714;13.200;2023-04-24T12:20:20;16.50;99.90
79694;DHT22;69165;52.714;13.200;2023-04-24T12:22:19;16.50;99.90
79694;DHT22;69165;52.714;13.200;2023-04-24T12:24:21;16.50;99.90
79694;DHT22;69165;52.714;13.200;2023-04-24T12:26:22;16.50;99.90
79694;DHT22;69165;52.714;13.200;2023-04-24T12:28:24;16.40;99.90
79694;DHT22;69165;52.714;13.200;2023-04-24T12:30:27;16.20;99.90
79694;DHT22;69165;52.714;13.200;2023-04-24T12:32:29;15.80;99.90
79694;DHT22;69165;52.714;13.200;2023-04-24T12:34:31;15.60;99.90
79694;DHT22;69165;52.714;13.200;2023-04-24T12:36:34;15.60;99.90
79694;DHT22;69165;52.714;13.200;2023-04-24T12:38:34;15.40;99.90
79694;DHT22;69165;52.714;13.200;2023-04-24T12:40:36;15.30;99.90
79694;DHT22;69165;52.714;13.200;2023-04-24T12:42:43;15.30;99.90
79694;DHT22;69165;52.714;13.200;2023-04-24T12:44:44;15.50;99.90
79694;DHT22;69165;52.714;13.200;2023-04-24T12:46:46;15.80;99.90
79694;DHT22;69165;52.714;13.200;2023-04-24T12:48:47;15.90;99.90
79694;DHT22;69165;52.714;13.200;2023-04-24T12:50:49;15.80;99.90
79694;DHT22;69165;52.714;13.200;2023-04-24T12:52:50;15.80;99.90
79694;DHT22;69165;52.714;13.200;2023-04-24T12:54:54;15.70;99.90
79694;DHT22;69165;52.714;13.200;2023-04-24T12:56:55;15.70;99.90
79694;DHT22;69165;52.714;13.200;2023-04-24T12:58:56;15.80;99.90
79694;DHT22;69165;52.714;13.200;2023-04-24T13:00:58;15.70;99.90
79694;DHT22;69165;52.714;13.200;2023-04-24T13:02:59;15.70;99.90
79694;DHT22;69165;52.714;13.200;2023-04-24T13:05:02;15.60;99.90
79694;DHT22;69165;52.714;13.200;2023-04-24T13:07:04;15.60;99.90
79694;DHT22;69165;52.714;13.200;2023-04-24T13:09:05;15.50;99.90
79694;DHT22;69165;52.714;13.200;2023-04-24T13:11:07;15.70;99.90
79694;DHT22;69165;52.714;13.200;2023-04-24T13:13:10;15.80;99.90
79694;DHT22;69165;52.714;13.200;2023-04-24T13:15:12;15.80;99.90
79694;DHT22;69165;52.714;13.200;2023-04-24T13:17:13;15.80;99.90
79694;DHT22;69165;52.714;13.200;2023-04-24T13:19:15;15.90;99.90
79694;DHT22;69165;52.714;13.200;2023-04-24T13:21:16;15.90;99.90
79694;DHT22;69165;52.714;13.200;2023-04-24T13:23:18;16.00;99.90
79694;DHT22;69165;52.714;13.200;2023-04-24T13:25:19;16.00;99.90
79694;DHT22;69165;52.714;13.200;2023-04-24T13:27:21;16.00;99.90
79694;DHT22;69165;52.714;13.200;2023-04-24T13:29:23;16.00;99.90
79694;DHT22;69165;52.714;13.200;2023-04-24T13:31:24;16.20;99.90
79694;DHT22;69165;52.714;13.200;2023-04-24T13:33:26;16.40;99.90
79694;DHT22;69165;52.714;13.200;2023-04-24T13:35:27;16.70;99.90
79694;DHT22;69165;52.714;13.200;2023-04-24T13:37:29;16.80;99.90
79694;DHT22;69165;52.714;13.200;2023-04-24T13:39:31;17.00;99.90
79694;DHT22;69165;52.714;13.200;2023-04-24T13:41:32;17.00;99.90
79694;DHT22;69165;52.714;13.200;2023-04-24T13:43:34;17.20;99.90
79694;DHT22;69165;52.714;13.200;2023-04-24T13:45:35;17.30;99.90
79694;DHT22;69165;52.714;13.200;2023-04-24T13:47:37;17.40;99.90
79694;DHT22;69165;52.714;13.200;2023-04-24T13:49:39;17.40;99.90
79694;DHT22;69165;52.714;13.200;2023-04-24T13:51:41;17.40;99.90
79694;DHT22;69165;52.714;13.200;2023-04-24T13:53:42;17.40;99.90
79694;DHT22;69165;52.714;13.200;2023-04-24T13:55:44;17.50;99.90
79694;DHT22;69165;52.714;13.200;2023-04-24T13:57:45;17.40;99.90
79694;DHT22;69165;52.714;13.200;2023-04-24T13:59:48;17.10;99.90
79694;DHT22;69165;52.714;13.200;2023-04-24T14:01:50;17.00;99.90
79694;DHT22;69165;52.714;13.200;2023-04-24T14:03:53;16.90;99.90
79694;DHT22;69165;52.714;13.200;2023-04-24T14:05:55;16.90;99.90
79694;DHT22;69165;52.714;13.200;2023-04-24T14:07:57;16.80;99.90
79694;DHT22;69165;52.714;13.200;2023-04-24T14:09:58;17.00;99.90
79694;DHT22;69165;52.714;13.200;2023-04-24T14:12:00;17.00;99.90
79694;DHT22;69165;52.714;13.200;2023-04-24T14:14:01;17.10;99.90
79694;DHT22;69165;52.714;13.200;2023-04-24T14:16:03;17.30;99.90
79694;DHT22;69165;52.714;13.200;2023-04-24T14:18:05;17.50;99.90
79694;DHT22;69165;52.714;13.200;2023-04-24T14:20:07;17.60;99.90
79694;DHT22;69165;52.714;13.200;2023-04-24T14:22:09;17.70;99.90
79694;DHT22;69165;52.714;13.200;2023-04-24T14:24:10;17.70;99.60
79694;DHT22;69165;52.714;13.200;2023-04-24T14:26:12;17.70;99.90
79694;DHT22;69165;52.714;13.200;2023-04-24T14:28:13;17.80;99.90
79694;DHT22;69165;52.714;13.200;2023-04-24T14:30:15;17.90;98.80
79694;DHT22;69165;52.714;13.200;2023-04-24T14:32:17;17.90;98.80
79694;DHT22;69165;52.714;13.200;2023-04-24T14:34:19;17.70;97.60
79694;DHT22;69165;52.714;13.200;2023-04-24T14:36:21;17.70;98.40
79694;DHT22;69165;52.714;13.200;2023-04-24T14:38:23;17.70;98.40
79694;DHT22;69165;52.714;13.200;2023-04-24T14:40:25;17.70;99.00
79694;DHT22;69165;52.714;13.200;2023-04-24T14:42:26;17.70;99.70
79694;DHT22;69165;52.714;13.200;2023-04-24T14:44:28;17.80;98.00
79694;DHT22;69165;52.714;13.200;2023-04-24T14:46:29;17.90;98.30
79694;DHT22;69165;52.714;13.200;2023-04-24T14:48:31;18.00;99.10
79694;DHT22;69165;52.714;13.200;2023-04-24T14:50:32;18.10;97.70
79694;DHT22;69165;52.714;13.200;2023-04-24T14:52:35;18.10;97.10
79694;DHT22;69165;52.714;13.200;2023-04-24T14:54:36;18.10;97.20
79694;DHT22;69165;52.714;13.200;2023-04-24T14:56:38;18.00;97.20
79694;DHT22;69165;52.714;13.200;2023-04-24T14:58:40;17.90;96.80
79694;DHT22;69165;52.714;13.200;2023-04-24T15:00:43;17.80;96.30
79694;DHT22;69165;52.714;13.200;2023-04-24T15:02:45;17.70;96.30
79694;DHT22;69165;52.714;13.200;2023-04-24T15:04:46;17.50;96.00
79694;DHT22;69165;52.714;13.200;2023-04-24T15:06:48;17.40;96.40
79694;DHT22;69165;52.714;13.200;2023-04-24T15:08:49;17.40;95.80
79694;DHT22;69165;52.714;13.200;2023-04-24T15:10:51;17.40;96.40
79694;DHT22;69165;52.714;13.200;2023-04-24T15:12:53;17.40;96.20
79694;DHT22;69165;52.714;13.200;2023-04-24T15:14:54;17.30;96.20
79694;DHT22;69165;52.714;13.200;2023-04-24T15:16:56;17.10;95.70
79694;DHT22;69165;52.714;13.200;2023-04-24T15:18:58;16.70;96.60
79694;DHT22;69165;52.714;13.200;2023-04-24T15:21:00;16.70;97.40
79694;DHT22;69165;52.714;13.200;2023-04-24T15:23:02;16.70;97.40
79694;DHT22;69165;52.714;13.200;2023-04-24T15:25:04;16.70;97.40
79694;DHT22;69165;52.714;13.200;2023-04-24T15:27:08;16.60;97.30
79694;DHT22;69165;52.714;13.200;2023-04-24T15:29:08;16.50;97.00
79694;DHT22;69165;52.714;13.200;2023-04-24T15:31:09;16.50;97.30
79694;DHT22;69165;52.714;13.200;2023-04-24T15:33:11;16.40;97.20
79694;DHT22;69165;52.714;13.200;2023-04-24T15:35:12;16.30;96.60
79694;DHT22;69165;52.714;13.200;2023-04-24T15:37:14;16.20;96.70
79694;DHT22;69165;52.714;13.200;2023-04-24T15:39:15;16.20;96.90
79694;DHT22;69165;52.714;13.200;2023-04-24T15:41:17;16.10;97.70
79694;DHT22;69165;52.714;13.200;2023-04-24T15:43:19;16.10;96.50
79694;DHT22;69165;52.714;13.200;2023-04-24T15:45:20;16.00;97.20
79694;DHT22;69165;52.714;13.200;2023-04-24T15:47:23;16.00;97.10
79694;DHT22;69165;52.714;13.200;2023-04-24T15:49:24;15.90;97.10
79694;DHT22;69165;52.714;13.200;2023-04-24T15:51:26;15.90;97.10
79694;DHT22;69165;52.714;13.200;2023-04-24T15:53:27;15.90;97.00
79694;DHT22;69165;52.714;13.200;2023-04-24T15:57:30;16.00;96.60
79694;DHT22;69165;52.714;13.200;2023-04-24T15:59:32;16.00;96.50
79694;DHT22;69165;52.714;13.200;2023-04-24T16:01:33;16.10;96.50
79694;DHT22;69165;52.714;13.200;2023-04-24T16:03:36;16.30;96.30
79694;DHT22;69165;52.714;13.200;2023-04-24T16:05:38;16.40;96.80
79694;DHT22;69165;52.714;13.200;2023-04-24T16:07:40;16.40;95.50
79694;DHT22;69165;52.714;13.200;2023-04-24T16:09:43;16.30;95.70
79694;DHT22;69165;52.714;13.200;2023-04-24T16:11:44;16.20;95.70
79694;DHT22;69165;52.714;13.200;2023-04-24T16:13:46;16.20;95.60
79694;DHT22;69165;52.714;13.200;2023-04-24T16:15:49;16.10;95.50
79694;DHT22;69165;52.714;13.200;2023-04-24T16:17:49;16.00;95.60
79694;DHT22;69165;52.714;13.200;2023-04-24T16:19:51;16.00;96.00
79694;DHT22;69165;52.714;13.200;2023-04-24T16:21:52;15.90;96.60
79694;DHT22;69165;52.714;13.200;2023-04-24T16:23:54;15.90;96.20
79694;DHT22;69165;52.714;13.200;2023-04-24T16:25:55;15.80;96.70
79694;DHT22;69165;52.714;13.200;2023-04-24T16:27:57;15.80;97.00
79694;DHT22;69165;52.714;13.200;2023-04-24T16:29:59;15.50;97.50
79694;DHT22;69165;52.714;13.200;2023-04-24T16:32:01;15.50;97.70
79694;DHT22;69165;52.714;13.200;2023-04-24T16:34:03;15.40;97.70
79694;DHT22;69165;52.714;13.200;2023-04-24T16:36:05;15.10;99.40
79694;DHT22;69165;52.714;13.200;2023-04-24T16:38:07;15.00;99.40
79694;DHT22;69165;52.714;13.200;2023-04-24T16:40:08;14.90;99.90
79694;DHT22;69165;52.714;13.200;2023-04-24T16:42:11;14.60;99.90
79694;DHT22;69165;52.714;13.200;2023-04-24T16:44:13;14.60;99.90
79694;DHT22;69165;52.714;13.200;2023-04-24T16:46:16;14.30;99.90
79694;DHT22;69165;52.714;13.200;2023-04-24T16:48:18;14.30;99.90
79694;DHT22;69165;52.714;13.200;2023-04-24T16:50:20;14.20;99.90
79694;DHT22;69165;52.714;13.200;2023-04-24T16:52:22;14.20;99.90
79694;DHT22;69165;52.714;13.200;2023-04-24T16:54:24;14.10;99.90
79694;DHT22;69165;52.714;13.200;2023-04-24T16:56:25;13.80;99.90
79694;DHT22;69165;52.714;13.200;2023-04-24T16:58:27;13.80;99.90
79694;DHT22;69165;52.714;13.200;2023-04-24T17:00:29;13.60;99.90
79694;DHT22;69165;52.714;13.200;2023-04-24T17:02:32;13.60;99.90
79694;DHT22;69165;52.714;13.200;2023-04-24T17:04:33;13.60;99.90
79694;DHT22;69165;52.714;13.200;2023-04-24T17:06:36;13.50;99.90
79694;DHT22;69165;52.714;13.200;2023-04-24T17:08:39;13.60;99.90
79694;DHT22;69165;52.714;13.200;2023-04-24T17:10:41;13.50;99.90
79694;DHT22;69165;52.714;13.200;2023-04-24T17:12:44;13.50;99.90
79694;DHT22;69165;52.714;13.200;2023-04-24T17:14:46;13.50;99.90
79694;DHT22;69165;52.714;13.200;2023-04-24T17:16:48;13.50;99.90
79694;DHT22;69165;52.714;13.200;2023-04-24T17:18:49;13.50;99.90
79694;DHT22;69165;52.714;13.200;2023-04-24T17:20:51;13.50;99.90
79694;DHT22;69165;52.714;13.200;2023-04-24T17:22:53;13.40;99.90
79694;DHT22;69165;52.714;13.200;2023-04-24T17:24:54;13.40;99.90
79694;DHT22;69165;52.714;13.200;2023-04-24T17:26:56;13.40;99.90
79694;DHT22;69165;52.714;13.200;2023-04-24T17:28:57;13.40;99.90
79694;DHT22;69165;52.714;13.200;2023-04-24T17:30:59;13.30;99.90
79694;DHT22;69165;52.714;13.200;2023-04-24T17:33:01;13.30;99.90
79694;DHT22;69165;52.714;13.200;2023-04-24T17:35:02;13.30;99.90
79694;DHT22;69165;52.714;13.200;2023-04-24T17:37:04;13.20;99.90
79694;DHT22;69165;52.714;13.200;2023-04-24T17:39:06;13.10;99.90
79694;DHT22;69165;52.714;13.200;2023-04-24T17:41:09;13.00;99.90
79694;DHT22;69165;52.714;13.200;2023-04-24T17:43:11;12.90;99.90
79694;DHT22;69165;52.714;13.200;2023-04-24T17:45:13;12.90;99.90